Terminal Aerodrome Forecast
Issued by NWS Kansas City/Pleasant Hill, MO

Home | Current Version | Previous Version | Text Only | Print | Product List | Glossary On
Versions: 1 2 3 4 5 6 7 8 9 10 11 12 13 14 15 16 17 18 19 20 21
000
FTUS43 KEAX 212300
TAFMCI
TAF
KMCI 212324Z 2200/2224 18012KT P6SM OVC012
     FM220200 17015G23KT P6SM VCSH OVC010
      TEMPO 2203/2206 5SM -DZ BKN008
     FM220900 19012G20KT 3SM -RA BR OVC008
     FM221700 22011KT 6SM BR OVC025=

USA.gov is the U.S. government's official web portal to all federal, state and local government web resources and services.